Terminal Aerodrome Forecast
Issued by NWS Duluth, MN

Home | Current Version | Previous Version | Text Only | Print | Product List | Glossary On
Versions: 1 2 3 4 5 6 7 8 9 10 11 12 13 14 15 16 17 18 19 20 21 22 23 24 25 26 27
000
FTUS43 KDLH 212300
TAFINL
TAF
KINL 212340Z 2200/2224 14005KT 3SM BR OVC006
      TEMPO 2204/2208 2SM -DZ OVC003
     FM220800 11005KT 2SM -DZ OVC003
     FM221300 10004KT 1 1/2SM -DZSN BR OVC003=

USA.gov is the U.S. government's official web portal to all federal, state and local government web resources and services.